Main page
METAR-TAF:

METAR-TAF

Airports :

London City Airport

London, England

latitude: 51-30N, longitude: 000-03E, elevation: 5 m

Current weather observation

The report was made 22 minutes ago, at 16:50 UTC
Wind 6 kt from the Southeast
Temperature 6°C
Humidity 87%
Pressure 1017 hPa
Visibility: 6000 m
Overcast at a height of 800 ft

METAR: EGLC 251650Z AUTO 13006KT 6000 OVC008 06/04 Q1017

Time: 17:12 (17:12 UTC)

Forecast

The report was made 9 hours and 11 minutes ago, at 08:01 UTC
Forecast valid from 25 at 09 UTC to 25 at 12 UTC
Wind 6 kt from the South
Visibility: 6000 m
Broken clouds at a height of 1600 ft
Temporary
from 25 at 09 UTC to 25 at 12 UTC
Visibility: 4000 m
Broken clouds at a height of 900 ft
light drizzle, mist

TAF: EGLC 250801Z 2509/2512 18006KT 6000 BKN016 TEMPO 2509/2512 4000 -DZ BR BKN009

Weather observations and forecasts of more than 4000 airports (METAR and TAF reports).

The available stations are represented by yellow and red dots on the map.

Hover mouse over dot to see the name of the station.

Then click to see weather observations and forecasts.

To change the map : click on the green buttons with a black cross to zoom in, on the green button with a dash to zoom out, or on the green arrows for adjacent maps.


METAR-TAF: